sensor_id;sensor_type;location;lat;lon;timestamp;P1;durP1;ratioP1;P2;durP2;ratioP2
56242;SDS011;42155;53.096;23.226;2023-05-14T00:00:56;30.00;;;11.73;;
56242;SDS011;42155;53.096;23.226;2023-05-14T00:02:57;18.88;;;11.18;;
56242;SDS011;42155;53.096;23.226;2023-05-14T00:04:57;23.40;;;11.95;;
56242;SDS011;42155;53.096;23.226;2023-05-14T00:06:57;19.27;;;11.75;;
56242;SDS011;42155;53.096;23.226;2023-05-14T00:08:58;17.17;;;11.65;;
56242;SDS011;42155;53.096;23.226;2023-05-14T00:10:58;20.00;;;11.65;;
56242;SDS011;42155;53.096;23.226;2023-05-14T00:12:59;24.17;;;11.55;;
56242;SDS011;42155;53.096;23.226;2023-05-14T00:15:00;21.27;;;11.73;;
56242;SDS011;42155;53.096;23.226;2023-05-14T00:17:00;19.65;;;11.25;;
56242;SDS011;42155;53.096;23.226;2023-05-14T00:19:00;23.40;;;10.88;;
56242;SDS011;42155;53.096;23.226;2023-05-14T00:21:01;22.80;;;11.98;;
56242;SDS011;42155;53.096;23.226;2023-05-14T00:23:01;19.73;;;11.60;;
56242;SDS011;42155;53.096;23.226;2023-05-14T00:25:01;21.40;;;11.30;;
56242;SDS011;42155;53.096;23.226;2023-05-14T00:27:02;20.00;;;11.57;;
56242;SDS011;42155;53.096;23.226;2023-05-14T00:29:02;22.23;;;12.15;;
56242;SDS011;42155;53.096;23.226;2023-05-14T00:31:03;23.05;;;11.55;;
56242;SDS011;42155;53.096;23.226;2023-05-14T00:33:03;25.42;;;12.68;;
56242;SDS011;42155;53.096;23.226;2023-05-14T00:35:04;26.52;;;12.50;;
56242;SDS011;42155;53.096;23.226;2023-05-14T00:37:05;20.30;;;11.82;;
56242;SDS011;42155;53.096;23.226;2023-05-14T00:39:05;21.05;;;11.43;;
56242;SDS011;42155;53.096;23.226;2023-05-14T00:41:06;19.60;;;11.40;;
56242;SDS011;42155;53.096;23.226;2023-05-14T00:43:06;21.23;;;11.93;;
56242;SDS011;42155;53.096;23.226;2023-05-14T00:45:06;23.58;;;11.65;;
56242;SDS011;42155;53.096;23.226;2023-05-14T00:47:07;25.00;;;12.10;;
56242;SDS011;42155;53.096;23.226;2023-05-14T00:49:07;26.23;;;12.27;;
56242;SDS011;42155;53.096;23.226;2023-05-14T00:51:08;20.90;;;10.93;;
56242;SDS011;42155;53.096;23.226;2023-05-14T00:53:08;19.48;;;12.07;;
56242;SDS011;42155;53.096;23.226;2023-05-14T00:55:10;20.65;;;12.27;;
56242;SDS011;42155;53.096;23.226;2023-05-14T00:57:14;25.77;;;12.32;;
56242;SDS011;42155;53.096;23.226;2023-05-14T00:59:14;23.35;;;12.02;;
56242;SDS011;42155;53.096;23.226;2023-05-14T01:01:15;23.27;;;12.15;;
56242;SDS011;42155;53.096;23.226;2023-05-14T01:03:15;20.67;;;12.02;;
56242;SDS011;42155;53.096;23.226;2023-05-14T01:05:15;21.73;;;12.10;;
56242;SDS011;42155;53.096;23.226;2023-05-14T01:09:36;22.17;;;12.00;;
56242;SDS011;42155;53.096;23.226;2023-05-14T01:11:54;19.10;;;11.68;;
56242;SDS011;42155;53.096;23.226;2023-05-14T01:15:58;18.65;;;11.85;;
56242;SDS011;42155;53.096;23.226;2023-05-14T01:18:10;18.00;;;11.07;;
56242;SDS011;42155;53.096;23.226;2023-05-14T01:20:12;20.63;;;11.13;;
56242;SDS011;42155;53.096;23.226;2023-05-14T01:22:13;18.67;;;11.98;;
56242;SDS011;42155;53.096;23.226;2023-05-14T01:24:13;24.67;;;12.00;;
56242;SDS011;42155;53.096;23.226;2023-05-14T01:26:14;17.65;;;11.73;;
56242;SDS011;42155;53.096;23.226;2023-05-14T01:28:18;19.65;;;11.45;;
56242;SDS011;42155;53.096;23.226;2023-05-14T01:30:24;16.73;;;11.52;;
56242;SDS011;42155;53.096;23.226;2023-05-14T01:32:29;18.50;;;11.50;;
56242;SDS011;42155;53.096;23.226;2023-05-14T01:34:32;17.52;;;10.82;;
56242;SDS011;42155;53.096;23.226;2023-05-14T01:36:35;17.23;;;10.63;;
56242;SDS011;42155;53.096;23.226;2023-05-14T01:38:36;17.52;;;10.95;;
56242;SDS011;42155;53.096;23.226;2023-05-14T01:40:37;15.77;;;10.95;;
56242;SDS011;42155;53.096;23.226;2023-05-14T01:42:38;18.50;;;11.40;;
56242;SDS011;42155;53.096;23.226;2023-05-14T01:44:40;20.10;;;11.55;;
56242;SDS011;42155;53.096;23.226;2023-05-14T01:46:40;20.90;;;11.32;;
56242;SDS011;42155;53.096;23.226;2023-05-14T01:48:41;21.10;;;11.10;;
56242;SDS011;42155;53.096;23.226;2023-05-14T01:50:41;17.83;;;11.38;;
56242;SDS011;42155;53.096;23.226;2023-05-14T01:52:41;19.45;;;11.40;;
56242;SDS011;42155;53.096;23.226;2023-05-14T01:54:42;17.67;;;10.88;;
56242;SDS011;42155;53.096;23.226;2023-05-14T01:56:42;16.20;;;10.57;;
56242;SDS011;42155;53.096;23.226;2023-05-14T01:58:42;17.73;;;11.13;;
56242;SDS011;42155;53.096;23.226;2023-05-14T02:00:43;19.42;;;11.60;;
56242;SDS011;42155;53.096;23.226;2023-05-14T02:02:43;19.20;;;10.45;;
56242;SDS011;42155;53.096;23.226;2023-05-14T02:04:43;17.67;;;10.93;;
56242;SDS011;42155;53.096;23.226;2023-05-14T02:06:44;17.10;;;11.00;;
56242;SDS011;42155;53.096;23.226;2023-05-14T02:08:44;18.33;;;11.40;;
56242;SDS011;42155;53.096;23.226;2023-05-14T02:10:44;16.65;;;10.65;;
56242;SDS011;42155;53.096;23.226;2023-05-14T02:12:45;15.35;;;10.82;;
56242;SDS011;42155;53.096;23.226;2023-05-14T02:14:45;19.77;;;11.57;;
56242;SDS011;42155;53.096;23.226;2023-05-14T02:16:46;22.63;;;11.05;;
56242;SDS011;42155;53.096;23.226;2023-05-14T02:18:46;18.23;;;11.32;;
56242;SDS011;42155;53.096;23.226;2023-05-14T02:20:46;15.38;;;9.25;;
56242;SDS011;42155;53.096;23.226;2023-05-14T02:22:46;18.55;;;11.43;;
56242;SDS011;42155;53.096;23.226;2023-05-14T02:24:47;17.73;;;10.82;;
56242;SDS011;42155;53.096;23.226;2023-05-14T02:26:47;17.88;;;10.95;;
56242;SDS011;42155;53.096;23.226;2023-05-14T02:28:47;19.30;;;11.07;;
56242;SDS011;42155;53.096;23.226;2023-05-14T02:30:48;18.90;;;10.30;;
56242;SDS011;42155;53.096;23.226;2023-05-14T02:32:48;18.08;;;10.45;;
56242;SDS011;42155;53.096;23.226;2023-05-14T02:34:48;19.05;;;10.75;;
56242;SDS011;42155;53.096;23.226;2023-05-14T02:36:49;18.02;;;10.85;;
56242;SDS011;42155;53.096;23.226;2023-05-14T02:38:49;18.38;;;10.30;;
56242;SDS011;42155;53.096;23.226;2023-05-14T02:40:50;17.60;;;10.55;;
56242;SDS011;42155;53.096;23.226;2023-05-14T02:42:50;17.58;;;10.13;;
56242;SDS011;42155;53.096;23.226;2023-05-14T02:44:50;18.83;;;11.02;;
56242;SDS011;42155;53.096;23.226;2023-05-14T02:46:51;15.52;;;10.40;;
56242;SDS011;42155;53.096;23.226;2023-05-14T02:48:51;21.40;;;11.73;;
56242;SDS011;42155;53.096;23.226;2023-05-14T02:50:51;15.23;;;9.95;;
56242;SDS011;42155;53.096;23.226;2023-05-14T02:52:52;15.38;;;10.27;;
56242;SDS011;42155;53.096;23.226;2023-05-14T02:54:52;16.38;;;10.30;;
56242;SDS011;42155;53.096;23.226;2023-05-14T02:56:52;26.70;;;11.25;;
56242;SDS011;42155;53.096;23.226;2023-05-14T02:58:52;15.32;;;10.48;;
56242;SDS011;42155;53.096;23.226;2023-05-14T03:00:53;18.30;;;11.10;;
56242;SDS011;42155;53.096;23.226;2023-05-14T03:02:53;23.05;;;11.38;;
56242;SDS011;42155;53.096;23.226;2023-05-14T03:04:54;20.63;;;11.15;;
56242;SDS011;42155;53.096;23.226;2023-05-14T03:06:54;21.63;;;12.38;;
56242;SDS011;42155;53.096;23.226;2023-05-14T03:08:54;17.10;;;10.80;;
56242;SDS011;42155;53.096;23.226;2023-05-14T03:10:55;21.08;;;10.63;;
56242;SDS011;42155;53.096;23.226;2023-05-14T03:12:55;20.15;;;11.32;;
56242;SDS011;42155;53.096;23.226;2023-05-14T03:14:55;15.98;;;11.18;;
56242;SDS011;42155;53.096;23.226;2023-05-14T03:16:56;16.77;;;10.60;;
56242;SDS011;42155;53.096;23.226;2023-05-14T03:18:56;17.15;;;10.88;;
56242;SDS011;42155;53.096;23.226;2023-05-14T03:20:56;13.88;;;10.35;;
56242;SDS011;42155;53.096;23.226;2023-05-14T03:22:57;15.70;;;10.40;;
56242;SDS011;42155;53.096;23.226;2023-05-14T03:24:57;16.88;;;11.15;;
56242;SDS011;42155;53.096;23.226;2023-05-14T03:26:57;17.75;;;11.07;;
56242;SDS011;42155;53.096;23.226;2023-05-14T03:28:58;18.38;;;10.70;;
56242;SDS011;42155;53.096;23.226;2023-05-14T03:30:58;19.00;;;10.10;;
56242;SDS011;42155;53.096;23.226;2023-05-14T03:32:58;15.55;;;10.38;;
56242;SDS011;42155;53.096;23.226;2023-05-14T03:34:59;16.50;;;10.18;;
56242;SDS011;42155;53.096;23.226;2023-05-14T03:36:59;16.50;;;10.70;;
56242;SDS011;42155;53.096;23.226;2023-05-14T03:39:00;17.23;;;11.00;;
56242;SDS011;42155;53.096;23.226;2023-05-14T03:41:00;14.10;;;9.80;;
56242;SDS011;42155;53.096;23.226;2023-05-14T03:43:00;14.07;;;9.82;;
56242;SDS011;42155;53.096;23.226;2023-05-14T03:45:01;13.38;;;8.98;;
56242;SDS011;42155;53.096;23.226;2023-05-14T03:47:01;13.98;;;9.25;;
56242;SDS011;42155;53.096;23.226;2023-05-14T03:49:01;14.20;;;9.88;;
56242;SDS011;42155;53.096;23.226;2023-05-14T03:51:02;13.95;;;9.50;;
56242;SDS011;42155;53.096;23.226;2023-05-14T03:53:02;13.43;;;9.38;;
56242;SDS011;42155;53.096;23.226;2023-05-14T03:55:02;13.20;;;9.05;;
56242;SDS011;42155;53.096;23.226;2023-05-14T03:57:03;12.80;;;8.68;;
56242;SDS011;42155;53.096;23.226;2023-05-14T03:59:03;13.70;;;9.43;;
56242;SDS011;42155;53.096;23.226;2023-05-14T04:01:04;13.60;;;8.75;;
56242;SDS011;42155;53.096;23.226;2023-05-14T04:03:04;11.70;;;8.75;;
56242;SDS011;42155;53.096;23.226;2023-05-14T04:05:04;10.63;;;8.38;;
56242;SDS011;42155;53.096;23.226;2023-05-14T04:07:05;12.38;;;8.80;;
56242;SDS011;42155;53.096;23.226;2023-05-14T04:09:05;12.15;;;8.07;;
56242;SDS011;42155;53.096;23.226;2023-05-14T04:11:06;11.65;;;7.88;;
56242;SDS011;42155;53.096;23.226;2023-05-14T04:13:06;10.02;;;8.15;;
56242;SDS011;42155;53.096;23.226;2023-05-14T04:15:06;10.15;;;7.85;;
56242;SDS011;42155;53.096;23.226;2023-05-14T04:17:07;10.13;;;7.78;;
56242;SDS011;42155;53.096;23.226;2023-05-14T04:19:08;16.60;;;8.10;;
56242;SDS011;42155;53.096;23.226;2023-05-14T04:21:08;11.13;;;7.57;;
56242;SDS011;42155;53.096;23.226;2023-05-14T04:23:08;18.63;;;7.97;;
56242;SDS011;42155;53.096;23.226;2023-05-14T04:25:09;12.55;;;7.70;;
56242;SDS011;42155;53.096;23.226;2023-05-14T04:27:09;14.02;;;7.45;;
56242;SDS011;42155;53.096;23.226;2023-05-14T04:29:09;15.88;;;7.50;;
56242;SDS011;42155;53.096;23.226;2023-05-14T04:31:10;11.48;;;7.78;;
56242;SDS011;42155;53.096;23.226;2023-05-14T04:33:10;10.70;;;7.47;;
56242;SDS011;42155;53.096;23.226;2023-05-14T04:35:11;12.05;;;7.18;;
56242;SDS011;42155;53.096;23.226;2023-05-14T04:37:11;12.98;;;6.90;;
56242;SDS011;42155;53.096;23.226;2023-05-14T04:39:12;9.45;;;7.43;;
56242;SDS011;42155;53.096;23.226;2023-05-14T04:41:12;8.90;;;6.78;;
56242;SDS011;42155;53.096;23.226;2023-05-14T04:43:13;11.80;;;6.55;;
56242;SDS011;42155;53.096;23.226;2023-05-14T04:45:13;12.40;;;6.78;;
56242;SDS011;42155;53.096;23.226;2023-05-14T04:47:13;9.32;;;6.50;;
56242;SDS011;42155;53.096;23.226;2023-05-14T04:49:14;12.90;;;7.18;;
56242;SDS011;42155;53.096;23.226;2023-05-14T04:51:14;12.82;;;6.50;;
56242;SDS011;42155;53.096;23.226;2023-05-14T04:53:14;10.70;;;6.88;;
56242;SDS011;42155;53.096;23.226;2023-05-14T04:55:15;11.13;;;6.80;;
56242;SDS011;42155;53.096;23.226;2023-05-14T04:57:15;13.38;;;5.78;;
56242;SDS011;42155;53.096;23.226;2023-05-14T04:59:15;9.73;;;5.47;;
56242;SDS011;42155;53.096;23.226;2023-05-14T05:01:16;12.15;;;5.28;;
56242;SDS011;42155;53.096;23.226;2023-05-14T05:03:16;9.30;;;5.20;;
56242;SDS011;42155;53.096;23.226;2023-05-14T05:05:17;8.10;;;4.88;;
56242;SDS011;42155;53.096;23.226;2023-05-14T05:07:17;11.55;;;4.80;;
56242;SDS011;42155;53.096;23.226;2023-05-14T05:09:17;14.90;;;4.88;;
56242;SDS011;42155;53.096;23.226;2023-05-14T05:11:18;10.85;;;4.53;;
56242;SDS011;42155;53.096;23.226;2023-05-14T05:13:18;10.35;;;4.63;;
56242;SDS011;42155;53.096;23.226;2023-05-14T05:15:18;10.45;;;4.63;;
56242;SDS011;42155;53.096;23.226;2023-05-14T05:17:19;10.50;;;5.03;;
56242;SDS011;42155;53.096;23.226;2023-05-14T05:19:19;5.93;;;4.40;;
56242;SDS011;42155;53.096;23.226;2023-05-14T05:21:19;7.88;;;4.82;;
56242;SDS011;42155;53.096;23.226;2023-05-14T05:23:20;8.75;;;4.97;;
56242;SDS011;42155;53.096;23.226;2023-05-14T05:25:20;10.27;;;4.55;;
56242;SDS011;42155;53.096;23.226;2023-05-14T05:27:20;9.00;;;4.63;;
56242;SDS011;42155;53.096;23.226;2023-05-14T05:29:21;8.40;;;4.55;;
56242;SDS011;42155;53.096;23.226;2023-05-14T05:31:21;12.80;;;4.82;;
56242;SDS011;42155;53.096;23.226;2023-05-14T05:33:22;11.13;;;5.25;;
56242;SDS011;42155;53.096;23.226;2023-05-14T05:35:22;8.35;;;4.80;;
56242;SDS011;42155;53.096;23.226;2023-05-14T05:37:22;8.23;;;4.57;;
56242;SDS011;42155;53.096;23.226;2023-05-14T05:39:23;10.18;;;4.90;;
56242;SDS011;42155;53.096;23.226;2023-05-14T05:41:23;8.02;;;4.35;;
56242;SDS011;42155;53.096;23.226;2023-05-14T05:43:23;7.40;;;4.72;;
56242;SDS011;42155;53.096;23.226;2023-05-14T05:45:24;7.95;;;4.30;;
56242;SDS011;42155;53.096;23.226;2023-05-14T05:47:24;6.20;;;4.60;;
56242;SDS011;42155;53.096;23.226;2023-05-14T05:49:24;9.60;;;5.05;;
56242;SDS011;42155;53.096;23.226;2023-05-14T05:51:25;9.77;;;5.05;;
56242;SDS011;42155;53.096;23.226;2023-05-14T05:53:25;9.85;;;4.90;;
56242;SDS011;42155;53.096;23.226;2023-05-14T05:55:27;8.48;;;4.57;;
56242;SDS011;42155;53.096;23.226;2023-05-14T05:57:28;10.38;;;4.50;;
56242;SDS011;42155;53.096;23.226;2023-05-14T05:59:28;7.43;;;4.07;;
56242;SDS011;42155;53.096;23.226;2023-05-14T06:01:28;8.38;;;4.53;;
56242;SDS011;42155;53.096;23.226;2023-05-14T06:03:29;8.95;;;4.60;;
56242;SDS011;42155;53.096;23.226;2023-05-14T06:05:29;9.15;;;4.63;;
56242;SDS011;42155;53.096;23.226;2023-05-14T06:07:29;7.15;;;4.00;;
56242;SDS011;42155;53.096;23.226;2023-05-14T06:09:30;5.40;;;4.20;;
56242;SDS011;42155;53.096;23.226;2023-05-14T06:11:30;5.93;;;4.28;;
56242;SDS011;42155;53.096;23.226;2023-05-14T06:13:30;14.90;;;5.70;;
56242;SDS011;42155;53.096;23.226;2023-05-14T06:15:31;6.57;;;4.57;;
56242;SDS011;42155;53.096;23.226;2023-05-14T06:17:31;9.40;;;4.28;;
56242;SDS011;42155;53.096;23.226;2023-05-14T06:19:31;8.10;;;4.20;;
56242;SDS011;42155;53.096;23.226;2023-05-14T06:21:32;6.80;;;4.07;;
56242;SDS011;42155;53.096;23.226;2023-05-14T06:23:32;7.47;;;4.20;;
56242;SDS011;42155;53.096;23.226;2023-05-14T06:25:33;9.15;;;4.38;;
56242;SDS011;42155;53.096;23.226;2023-05-14T06:27:33;8.48;;;4.53;;
56242;SDS011;42155;53.096;23.226;2023-05-14T06:29:33;6.82;;;4.13;;
56242;SDS011;42155;53.096;23.226;2023-05-14T06:31:34;8.63;;;4.57;;
56242;SDS011;42155;53.096;23.226;2023-05-14T06:33:34;7.88;;;4.45;;
56242;SDS011;42155;53.096;23.226;2023-05-14T06:35:34;9.10;;;4.75;;
56242;SDS011;42155;53.096;23.226;2023-05-14T06:37:35;10.00;;;4.30;;
56242;SDS011;42155;53.096;23.226;2023-05-14T06:39:36;7.13;;;4.32;;
56242;SDS011;42155;53.096;23.226;2023-05-14T06:41:36;7.32;;;3.80;;
56242;SDS011;42155;53.096;23.226;2023-05-14T06:43:37;11.98;;;3.88;;
56242;SDS011;42155;53.096;23.226;2023-05-14T06:45:37;8.57;;;3.53;;
56242;SDS011;42155;53.096;23.226;2023-05-14T06:47:37;4.70;;;3.20;;
56242;SDS011;42155;53.096;23.226;2023-05-14T06:49:38;8.60;;;3.45;;
56242;SDS011;42155;53.096;23.226;2023-05-14T06:51:38;5.82;;;3.10;;
56242;SDS011;42155;53.096;23.226;2023-05-14T06:53:39;8.18;;;3.72;;
56242;SDS011;42155;53.096;23.226;2023-05-14T06:55:39;4.35;;;2.72;;
56242;SDS011;42155;53.096;23.226;2023-05-14T06:57:40;10.18;;;3.50;;
56242;SDS011;42155;53.096;23.226;2023-05-14T06:59:40;11.32;;;3.10;;
56242;SDS011;42155;53.096;23.226;2023-05-14T07:01:41;7.43;;;3.28;;
56242;SDS011;42155;53.096;23.226;2023-05-14T07:03:41;9.73;;;3.25;;
56242;SDS011;42155;53.096;23.226;2023-05-14T07:05:42;10.98;;;3.55;;
56242;SDS011;42155;53.096;23.226;2023-05-14T07:07:42;7.75;;;3.60;;
56242;SDS011;42155;53.096;23.226;2023-05-14T07:09:42;8.88;;;3.13;;
56242;SDS011;42155;53.096;23.226;2023-05-14T07:11:43;5.75;;;2.97;;
56242;SDS011;42155;53.096;23.226;2023-05-14T07:13:43;5.25;;;3.08;;
56242;SDS011;42155;53.096;23.226;2023-05-14T07:15:43;12.48;;;3.22;;
56242;SDS011;42155;53.096;23.226;2023-05-14T07:17:44;7.82;;;3.13;;
56242;SDS011;42155;53.096;23.226;2023-05-14T07:19:44;9.23;;;3.20;;
56242;SDS011;42155;53.096;23.226;2023-05-14T07:21:44;8.93;;;3.25;;
56242;SDS011;42155;53.096;23.226;2023-05-14T07:23:45;4.97;;;2.88;;
56242;SDS011;42155;53.096;23.226;2023-05-14T07:25:45;6.60;;;2.88;;
56242;SDS011;42155;53.096;23.226;2023-05-14T07:27:45;4.05;;;3.00;;
56242;SDS011;42155;53.096;23.226;2023-05-14T07:29:46;7.32;;;3.22;;
56242;SDS011;42155;53.096;23.226;2023-05-14T07:31:46;5.38;;;2.67;;
56242;SDS011;42155;53.096;23.226;2023-05-14T07:33:46;9.65;;;3.53;;
56242;SDS011;42155;53.096;23.226;2023-05-14T07:35:46;7.20;;;3.03;;
56242;SDS011;42155;53.096;23.226;2023-05-14T07:37:47;6.03;;;3.03;;
56242;SDS011;42155;53.096;23.226;2023-05-14T07:39:47;8.75;;;3.03;;
56242;SDS011;42155;53.096;23.226;2023-05-14T07:41:48;4.75;;;2.70;;
56242;SDS011;42155;53.096;23.226;2023-05-14T07:43:48;6.78;;;3.08;;
56242;SDS011;42155;53.096;23.226;2023-05-14T07:45:48;6.45;;;2.75;;
56242;SDS011;42155;53.096;23.226;2023-05-14T07:47:49;6.30;;;2.60;;
56242;SDS011;42155;53.096;23.226;2023-05-14T07:49:52;5.60;;;2.60;;
56242;SDS011;42155;53.096;23.226;2023-05-14T07:51:53;6.18;;;2.70;;
56242;SDS011;42155;53.096;23.226;2023-05-14T07:53:54;6.78;;;2.85;;
56242;SDS011;42155;53.096;23.226;2023-05-14T07:55:54;5.30;;;2.85;;
56242;SDS011;42155;53.096;23.226;2023-05-14T07:57:54;7.32;;;3.30;;
56242;SDS011;42155;53.096;23.226;2023-05-14T07:59:55;6.22;;;2.40;;
56242;SDS011;42155;53.096;23.226;2023-05-14T08:01:55;5.25;;;2.38;;
56242;SDS011;42155;53.096;23.226;2023-05-14T08:03:56;3.13;;;2.47;;
56242;SDS011;42155;53.096;23.226;2023-05-14T08:05:56;5.03;;;2.35;;
56242;SDS011;42155;53.096;23.226;2023-05-14T08:07:56;4.88;;;2.50;;
56242;SDS011;42155;53.096;23.226;2023-05-14T08:09:57;5.93;;;2.33;;
56242;SDS011;42155;53.096;23.226;2023-05-14T08:11:57;4.57;;;2.38;;
56242;SDS011;42155;53.096;23.226;2023-05-14T08:13:57;3.20;;;2.20;;
56242;SDS011;42155;53.096;23.226;2023-05-14T08:15:58;6.45;;;2.33;;
56242;SDS011;42155;53.096;23.226;2023-05-14T08:17:58;6.97;;;2.78;;
56242;SDS011;42155;53.096;23.226;2023-05-14T08:19:58;4.70;;;2.25;;
56242;SDS011;42155;53.096;23.226;2023-05-14T08:21:59;4.40;;;2.35;;
56242;SDS011;42155;53.096;23.226;2023-05-14T08:23:59;4.03;;;2.30;;
56242;SDS011;42155;53.096;23.226;2023-05-14T08:25:59;5.47;;;2.50;;
56242;SDS011;42155;53.096;23.226;2023-05-14T08:28:00;5.88;;;2.60;;
56242;SDS011;42155;53.096;23.226;2023-05-14T08:30:00;8.90;;;2.40;;
56242;SDS011;42155;53.096;23.226;2023-05-14T08:32:01;4.32;;;2.28;;
56242;SDS011;42155;53.096;23.226;2023-05-14T08:34:01;5.75;;;2.60;;
56242;SDS011;42155;53.096;23.226;2023-05-14T08:36:01;3.67;;;2.33;;
56242;SDS011;42155;53.096;23.226;2023-05-14T08:38:02;4.65;;;2.50;;
56242;SDS011;42155;53.096;23.226;2023-05-14T08:40:02;8.88;;;2.60;;
56242;SDS011;42155;53.096;23.226;2023-05-14T08:42:03;4.95;;;2.55;;
56242;SDS011;42155;53.096;23.226;2023-05-14T08:44:06;4.22;;;2.35;;
56242;SDS011;42155;53.096;23.226;2023-05-14T08:46:14;4.68;;;2.60;;
56242;SDS011;42155;53.096;23.226;2023-05-14T08:48:16;5.82;;;2.70;;
56242;SDS011;42155;53.096;23.226;2023-05-14T08:50:21;5.70;;;2.30;;
56242;SDS011;42155;53.096;23.226;2023-05-14T08:52:22;11.85;;;2.80;;
56242;SDS011;42155;53.096;23.226;2023-05-14T08:54:22;7.38;;;2.60;;
56242;SDS011;42155;53.096;23.226;2023-05-14T08:56:23;4.13;;;2.17;;
56242;SDS011;42155;53.096;23.226;2023-05-14T08:58:25;5.65;;;2.42;;
56242;SDS011;42155;53.096;23.226;2023-05-14T09:00:25;4.68;;;2.17;;
56242;SDS011;42155;53.096;23.226;2023-05-14T09:02:29;3.88;;;2.38;;
56242;SDS011;42155;53.096;23.226;2023-05-14T09:04:30;4.78;;;2.30;;
56242;SDS011;42155;53.096;23.226;2023-05-14T09:06:31;12.60;;;2.70;;
56242;SDS011;42155;53.096;23.226;2023-05-14T09:08:32;3.03;;;2.17;;
56242;SDS011;42155;53.096;23.226;2023-05-14T09:10:32;2.92;;;1.90;;
56242;SDS011;42155;53.096;23.226;2023-05-14T09:12:33;4.43;;;2.20;;
56242;SDS011;42155;53.096;23.226;2023-05-14T09:14:33;4.18;;;2.05;;
56242;SDS011;42155;53.096;23.226;2023-05-14T09:16:33;4.38;;;2.63;;
56242;SDS011;42155;53.096;23.226;2023-05-14T09:18:35;3.88;;;2.00;;
56242;SDS011;42155;53.096;23.226;2023-05-14T09:20:36;7.10;;;2.42;;
56242;SDS011;42155;53.096;23.226;2023-05-14T09:22:37;4.90;;;2.38;;
56242;SDS011;42155;53.096;23.226;2023-05-14T09:24:38;4.43;;;2.17;;
56242;SDS011;42155;53.096;23.226;2023-05-14T09:26:38;2.60;;;2.20;;
56242;SDS011;42155;53.096;23.226;2023-05-14T09:28:39;5.50;;;2.40;;
56242;SDS011;42155;53.096;23.226;2023-05-14T09:30:40;5.63;;;2.25;;
56242;SDS011;42155;53.096;23.226;2023-05-14T09:32:43;4.38;;;2.10;;
56242;SDS011;42155;53.096;23.226;2023-05-14T09:34:43;4.38;;;2.40;;
56242;SDS011;42155;53.096;23.226;2023-05-14T09:36:43;4.97;;;2.25;;
56242;SDS011;42155;53.096;23.226;2023-05-14T09:38:44;4.45;;;2.30;;
56242;SDS011;42155;53.096;23.226;2023-05-14T09:40:45;6.85;;;2.50;;
56242;SDS011;42155;53.096;23.226;2023-05-14T09:42:45;4.28;;;2.30;;
56242;SDS011;42155;53.096;23.226;2023-05-14T09:44:46;4.85;;;2.20;;
56242;SDS011;42155;53.096;23.226;2023-05-14T09:46:47;5.32;;;2.33;;
56242;SDS011;42155;53.096;23.226;2023-05-14T09:48:48;6.40;;;2.42;;
56242;SDS011;42155;53.096;23.226;2023-05-14T09:50:49;4.97;;;2.30;;
56242;SDS011;42155;53.096;23.226;2023-05-14T09:52:49;4.05;;;2.20;;
56242;SDS011;42155;53.096;23.226;2023-05-14T09:54:50;6.53;;;2.70;;
56242;SDS011;42155;53.096;23.226;2023-05-14T09:56:51;2.85;;;2.38;;
56242;SDS011;42155;53.096;23.226;2023-05-14T09:58:52;3.38;;;2.30;;
56242;SDS011;42155;53.096;23.226;2023-05-14T10:00:52;3.92;;;2.30;;
56242;SDS011;42155;53.096;23.226;2023-05-14T10:02:53;4.55;;;2.38;;
56242;SDS011;42155;53.096;23.226;2023-05-14T10:04:56;9.15;;;2.47;;
56242;SDS011;42155;53.096;23.226;2023-05-14T10:07:01;7.50;;;2.50;;
56242;SDS011;42155;53.096;23.226;2023-05-14T10:09:03;10.18;;;2.20;;
56242;SDS011;42155;53.096;23.226;2023-05-14T10:11:07;3.90;;;2.22;;
56242;SDS011;42155;53.096;23.226;2023-05-14T10:13:30;4.60;;;2.03;;
56242;SDS011;42155;53.096;23.226;2023-05-14T10:15:36;4.60;;;2.28;;
56242;SDS011;42155;53.096;23.226;2023-05-14T10:17:43;5.25;;;2.22;;
56242;SDS011;42155;53.096;23.226;2023-05-14T10:19:51;4.53;;;2.28;;
56242;SDS011;42155;53.096;23.226;2023-05-14T10:21:58;3.38;;;1.92;;
56242;SDS011;42155;53.096;23.226;2023-05-14T10:24:05;5.88;;;2.35;;
56242;SDS011;42155;53.096;23.226;2023-05-14T10:26:07;4.90;;;2.10;;
56242;SDS011;42155;53.096;23.226;2023-05-14T10:28:08;4.05;;;2.20;;
56242;SDS011;42155;53.096;23.226;2023-05-14T10:30:10;6.75;;;2.15;;
56242;SDS011;42155;53.096;23.226;2023-05-14T10:32:10;4.07;;;2.53;;
56242;SDS011;42155;53.096;23.226;2023-05-14T10:36:38;6.72;;;2.50;;
56242;SDS011;42155;53.096;23.226;2023-05-14T10:38:38;5.97;;;1.92;;
56242;SDS011;42155;53.096;23.226;2023-05-14T10:40:39;5.72;;;2.17;;
56242;SDS011;42155;53.096;23.226;2023-05-14T10:42:39;4.50;;;2.10;;
56242;SDS011;42155;53.096;23.226;2023-05-14T10:44:44;10.60;;;2.67;;
56242;SDS011;42155;53.096;23.226;2023-05-14T10:46:47;4.57;;;1.90;;
56242;SDS011;42155;53.096;23.226;2023-05-14T10:48:48;6.85;;;2.30;;
56242;SDS011;42155;53.096;23.226;2023-05-14T10:50:52;6.65;;;2.50;;
56242;SDS011;42155;53.096;23.226;2023-05-14T10:52:52;6.03;;;2.00;;
56242;SDS011;42155;53.096;23.226;2023-05-14T10:54:54;5.85;;;2.10;;
56242;SDS011;42155;53.096;23.226;2023-05-14T10:56:57;4.78;;;2.20;;
56242;SDS011;42155;53.096;23.226;2023-05-14T10:58:58;5.00;;;2.25;;
56242;SDS011;42155;53.096;23.226;2023-05-14T11:00:59;4.15;;;2.15;;
56242;SDS011;42155;53.096;23.226;2023-05-14T11:03:02;5.25;;;2.33;;
56242;SDS011;42155;53.096;23.226;2023-05-14T11:05:13;4.05;;;2.10;;
56242;SDS011;42155;53.096;23.226;2023-05-14T11:07:15;5.45;;;2.20;;
56242;SDS011;42155;53.096;23.226;2023-05-14T11:09:17;5.32;;;2.30;;
56242;SDS011;42155;53.096;23.226;2023-05-14T11:11:19;4.57;;;1.98;;
56242;SDS011;42155;53.096;23.226;2023-05-14T11:13:19;8.15;;;2.20;;
56242;SDS011;42155;53.096;23.226;2023-05-14T11:15:21;2.70;;;2.00;;
56242;SDS011;42155;53.096;23.226;2023-05-14T11:17:23;2.92;;;2.13;;
56242;SDS011;42155;53.096;23.226;2023-05-14T11:19:25;4.80;;;2.13;;
56242;SDS011;42155;53.096;23.226;2023-05-14T11:21:25;4.70;;;1.90;;
56242;SDS011;42155;53.096;23.226;2023-05-14T11:23:26;8.20;;;2.05;;
56242;SDS011;42155;53.096;23.226;2023-05-14T11:25:26;4.80;;;2.10;;
56242;SDS011;42155;53.096;23.226;2023-05-14T11:27:27;8.05;;;2.15;;
56242;SDS011;42155;53.096;23.226;2023-05-14T11:29:28;4.13;;;2.10;;
56242;SDS011;42155;53.096;23.226;2023-05-14T11:31:28;5.00;;;2.20;;
56242;SDS011;42155;53.096;23.226;2023-05-14T11:33:29;3.60;;;2.13;;
56242;SDS011;42155;53.096;23.226;2023-05-14T11:35:29;4.85;;;2.10;;
56242;SDS011;42155;53.096;23.226;2023-05-14T11:37:29;5.22;;;2.03;;
56242;SDS011;42155;53.096;23.226;2023-05-14T11:39:30;5.68;;;2.00;;
56242;SDS011;42155;53.096;23.226;2023-05-14T11:41:31;5.20;;;2.00;;
56242;SDS011;42155;53.096;23.226;2023-05-14T11:43:31;5.88;;;2.20;;
56242;SDS011;42155;53.096;23.226;2023-05-14T11:45:35;3.30;;;2.25;;
56242;SDS011;42155;53.096;23.226;2023-05-14T11:47:37;4.55;;;2.10;;
56242;SDS011;42155;53.096;23.226;2023-05-14T11:49:37;4.53;;;2.08;;
56242;SDS011;42155;53.096;23.226;2023-05-14T11:51:38;3.78;;;2.08;;
56242;SDS011;42155;53.096;23.226;2023-05-14T11:53:38;3.58;;;2.00;;
56242;SDS011;42155;53.096;23.226;2023-05-14T11:55:39;2.67;;;1.88;;